New London, Ohio
Current Conditions -  °F | °C
As of 11:52 PM on Monday 20 Oct 2014 (Local Time) from KMFD Reporting Station
Haze Haze  
Wind Chill: 52°   Ceiling: 2600
Heat Index: 52°   Visibility: 5mi
Dew Point: 51°   Wind: 5mph
Humidity: 97%   Direction: 280°W
Pressure: 29.87"   Gusts: NA
Location:  41.09°N, 82.4°W
Report Text: KMFD 210352Z AUTO 28004KT 5SM BR SCT006 OVC026 11/11 A2987 RMK AO2 SLP114 T01110106
Loading
Personal Weather Stations






























Interactive Weather Map
Tropical Storm Tracking
New forecast layout! Learn more

10-Day Weather Forecast

Advertisements
Track Severe Weather on mobile